Time;durP1;ratioP1;P1;durP2;ratioP2;P2;SDS_P1;SDS_P2;PMS_P1;PMS_P2;Temp;Humidity;BMP_temperature;BMP_pressure;BME280_temperature;BME280_humidity;BME280_pressure;Samples;Min_cycle;Max_cycle;Signal;HPM_P1;HPM_P2
2023/08/31 00:01:59;;;;;;;7.70;6.60;;;;;;;14.59;100.00;99719.42;105551;1254;69094;-61
2023/08/31 00:04:26;;;;;;;8.30;6.50;;;;;;;14.59;100.00;99721.52;105456;1254;69077;-62
2023/08/31 00:06:53;;;;;;;8.00;6.80;;;;;;;14.60;100.00;99722.85;105515;1254;74879;-65
2023/08/31 00:09:20;;;;;;;8.00;6.40;;;;;;;14.60;100.00;99719.17;105492;1257;83515;-70
2023/08/31 00:11:47;;;;;;;8.10;6.90;;;;;;;14.60;100.00;99720.92;105507;1256;73763;-63
2023/08/31 00:14:14;;;;;;;11.10;6.60;;;;;;;14.58;100.00;99717.40;105579;1253;69240;-63
2023/08/31 00:16:41;;;;;;;10.00;6.90;;;;;;;14.56;100.00;99718.58;105522;1255;69186;-63
2023/08/31 00:19:08;;;;;;;8.70;6.80;;;;;;;14.53;100.00;99719.60;105505;1256;75067;-63
2023/08/31 00:21:35;;;;;;;9.10;6.30;;;;;;;14.52;100.00;99718.45;105555;1254;82368;-63
2023/08/31 00:24:02;;;;;;;8.90;7.00;;;;;;;14.50;100.00;99717.29;105488;1253;73602;-63
2023/08/31 00:26:30;;;;;;;7.80;7.00;;;;;;;14.49;100.00;99721.80;105486;1253;69166;-63
2023/08/31 00:28:58;;;;;;;8.70;6.60;;;;;;;14.45;100.00;99717.67;105526;1254;69183;-63
2023/08/31 00:31:27;;;;;;;8.20;6.20;;;;;;;14.43;100.00;99715.86;105494;1254;75104;-63
2023/08/31 00:33:54;;;;;;;8.00;6.50;;;;;;;14.39;100.00;99714.15;105547;1256;83058;-63
2023/08/31 00:36:21;;;;;;;10.00;6.80;;;;;;;14.34;100.00;99710.98;105469;1254;73930;-63
2023/08/31 00:38:49;;;;;;;10.00;7.20;;;;;;;14.26;100.00;99716.53;105558;1256;69145;-63
2023/08/31 00:41:15;;;;;;;8.40;6.40;;;;;;;14.22;100.00;99712.95;105482;1255;69147;-63
2023/08/31 00:43:42;;;;;;;8.80;6.20;;;;;;;14.14;100.00;99715.20;105502;1256;73863;-63
2023/08/31 00:46:09;;;;;;;8.60;7.10;;;;;;;14.08;100.00;99710.86;105438;1259;83321;-63
2023/08/31 00:48:37;;;;;;;10.50;6.70;;;;;;;14.03;100.00;99709.91;105459;1253;72509;-63
2023/08/31 00:51:06;;;;;;;8.70;6.40;;;;;;;13.99;100.00;99711.41;105502;1252;69166;-63
2023/08/31 00:53:33;;;;;;;10.20;6.60;;;;;;;13.94;100.00;99713.82;105572;1256;69210;-63
2023/08/31 00:56:00;;;;;;;11.70;6.70;;;;;;;13.91;100.00;99714.91;105583;1254;73728;-63
2023/08/31 00:58:27;;;;;;;10.20;6.90;;;;;;;13.87;100.00;99713.39;105446;1254;83807;-63
2023/08/31 01:01:15;;;;;;;9.20;6.60;;;;;;;13.83;100.00;99715.02;105467;1254;73686;-63
2023/08/31 01:04:00;;;;;;;8.00;6.70;;;;;;;13.81;100.00;99712.87;105525;1256;69121;-62
2023/08/31 01:06:32;;;;;;;9.00;6.40;;;;;;;13.76;100.00;99715.80;105480;1254;69138;-62
2023/08/31 01:09:13;;;;;;;12.50;6.80;;;;;;;13.70;100.00;99707.42;105495;1254;75533;-63
2023/08/31 01:11:55;;;;;;;10.90;6.80;;;;;;;13.65;100.00;99706.83;105461;1254;83444;-62
2023/08/31 01:14:25;;;;;;;8.70;7.40;;;;;;;13.60;100.00;99702.72;105449;1256;71922;-63
2023/08/31 01:16:54;;;;;;;8.50;7.50;;;;;;;13.58;100.00;99702.00;105510;1254;69254;-63
2023/08/31 01:19:44;;;;;;;10.90;7.60;;;;;;;13.56;100.00;99703.34;105511;1256;69177;-63
2023/08/31 01:22:18;;;;;;;10.80;8.30;;;;;;;13.52;100.00;99707.59;105499;1256;73813;-63
2023/08/31 01:24:47;;;;;;;11.50;7.70;;;;;;;13.49;100.00;99703.95;105488;1256;82298;-63
2023/08/31 01:27:14;;;;;;;11.40;7.10;;;;;;;13.46;100.00;99710.79;105405;1258;72938;-63
2023/08/31 01:29:41;;;;;;;13.70;8.00;;;;;;;13.41;100.00;99704.91;105413;1254;69195;-63
2023/08/31 01:32:08;;;;;;;12.10;7.20;;;;;;;13.40;100.00;99702.55;105482;1256;69287;-63
2023/08/31 01:34:37;;;;;;;10.00;7.70;;;;;;;13.39;100.00;99699.80;105558;1254;73631;-63
2023/08/31 01:37:10;;;;;;;;;;;;;;;13.37;100.00;99700.80;105508;1256;83281;-63
2023/08/31 01:39:46;;;;;;;11.60;7.50;;;;;;;13.33;100.00;99700.86;105552;1256;73868;-63
2023/08/31 01:42:16;;;;;;;13.70;7.90;;;;;;;13.30;100.00;99700.31;105531;1256;69233;-63
2023/08/31 01:44:45;;;;;;;11.00;7.60;;;;;;;13.27;100.00;99699.59;105591;1254;69166;-63
2023/08/31 01:47:12;;;;;;;9.10;6.90;;;;;;;13.25;100.00;99701.85;105494;1256;74224;-63
2023/08/31 01:49:40;;;;;;;14.10;7.50;;;;;;;13.23;100.00;99701.73;105482;1254;82767;-63
2023/08/31 01:52:07;;;;;;;9.10;7.70;;;;;;;13.23;100.00;99703.00;105482;1254;72570;-63
2023/08/31 01:54:34;;;;;;;9.70;7.10;;;;;;;13.22;100.00;99704.60;105540;1256;69128;-63
2023/08/31 01:57:02;;;;;;;9.00;7.10;;;;;;;13.19;100.00;99703.20;105478;1254;69197;-63
2023/08/31 01:59:29;;;;;;;7.50;6.40;;;;;;;13.17;100.00;99700.83;105530;1254;75010;-63
2023/08/31 02:01:58;;;;;;;9.60;6.60;;;;;;;13.15;100.00;99704.29;105487;1256;83323;-63
2023/08/31 02:04:25;;;;;;;10.20;6.70;;;;;;;13.16;100.00;99704.44;105439;1257;73732;-63
2023/08/31 02:06:51;;;;;;;9.50;6.90;;;;;;;13.16;100.00;99703.71;105478;1254;69048;-63
2023/08/31 02:09:18;;;;;;;11.90;6.90;;;;;;;13.14;100.00;99705.27;105474;1254;69160;-63
2023/08/31 02:11:45;;;;;;;7.60;6.70;;;;;;;13.13;100.00;99706.35;105443;1254;74921;-63
2023/08/31 02:14:14;;;;;;;17.60;7.90;;;;;;;13.15;100.00;99704.86;105522;1254;82647;-63
2023/08/31 02:16:41;;;;;;;8.70;6.40;;;;;;;13.13;100.00;99707.05;105456;1254;73640;-63
2023/08/31 02:19:08;;;;;;;9.10;6.40;;;;;;;13.12;100.00;99706.77;105456;1254;69266;-63
2023/08/31 02:21:38;;;;;;;9.10;6.70;;;;;;;13.10;100.00;99710.57;105530;1254;69188;-63
2023/08/31 02:24:05;;;;;;;7.30;6.20;;;;;;;13.10;100.00;99709.69;105516;1257;73993;-63
2023/08/31 02:26:35;;;;;;;7.70;6.20;;;;;;;13.10;100.00;99710.57;105565;1256;83596;-63
2023/08/31 02:29:02;;;;;;;8.70;6.70;;;;;;;13.12;100.00;99705.92;105426;1259;73806;-63
2023/08/31 02:31:29;;;;;;;9.40;7.00;;;;;;;13.11;100.00;99701.93;105539;1256;69167;-63
2023/08/31 02:33:56;;;;;;;7.50;6.00;;;;;;;13.09;100.00;99705.17;105561;1256;69186;-63
2023/08/31 02:36:23;;;;;;;9.30;6.10;;;;;;;13.05;100.00;99705.27;105468;1254;74862;-63
2023/08/31 02:38:50;;;;;;;10.70;6.60;;;;;;;13.02;100.00;99704.06;105454;1256;83056;-63
2023/08/31 02:41:17;;;;;;;9.40;6.90;;;;;;;13.02;100.00;99703.39;105426;1254;72688;-63
2023/08/31 02:43:44;;;;;;;11.50;6.90;;;;;;;13.01;100.00;99700.27;105554;1254;69172;-63
2023/08/31 02:46:11;;;;;;;8.60;6.70;;;;;;;12.99;100.00;99701.80;105530;1256;69160;-63
2023/08/31 02:48:40;;;;;;;7.80;6.40;;;;;;;13.00;100.00;99696.06;105519;1256;73783;-63
2023/08/31 02:51:08;;;;;;;8.40;6.20;;;;;;;13.01;100.00;99700.79;105503;1254;82533;-63
2023/08/31 02:53:35;;;;;;;8.30;6.20;;;;;;;13.00;100.00;99707.15;105471;1256;73625;-63
2023/08/31 02:56:02;;;;;;;7.10;6.30;;;;;;;12.98;100.00;99703.54;105510;1256;69119;-63
2023/08/31 02:58:29;;;;;;;7.30;6.40;;;;;;;13.00;100.00;99704.17;105534;1260;69231;-63
2023/08/31 03:01:07;;;;;;;7.90;6.30;;;;;;;13.01;100.00;99699.05;105487;1254;73961;-63
2023/08/31 03:03:35;;;;;;;6.80;5.50;;;;;;;13.02;100.00;99697.92;105512;1254;82786;-63
2023/08/31 03:06:02;;;;;;;9.20;5.60;;;;;;;13.01;100.00;99701.86;105542;1257;72965;-63
2023/08/31 03:08:29;;;;;;;6.80;5.70;;;;;;;12.98;100.00;99706.36;105480;1254;69211;-63
2023/08/31 03:10:57;;;;;;;9.30;5.90;;;;;;;12.94;100.00;99710.80;105561;1256;69188;-63
2023/08/31 03:13:24;;;;;;;11.40;6.30;;;;;;;12.92;100.00;99719.34;105487;1256;73893;-63
2023/08/31 03:15:51;;;;;;;9.80;6.00;;;;;;;12.89;100.00;99716.55;105451;1254;82931;-63
2023/08/31 03:18:18;;;;;;;6.80;5.50;;;;;;;12.87;100.00;99714.01;105570;1254;73679;-63
2023/08/31 03:20:47;;;;;;;8.00;5.90;;;;;;;12.85;100.00;99714.51;105516;1254;69007;-63
2023/08/31 03:23:14;;;;;;;7.40;6.00;;;;;;;12.84;100.00;99713.53;105505;1256;69183;-63
2023/08/31 03:25:42;;;;;;;8.30;5.40;;;;;;;12.81;100.00;99713.14;105495;1254;74659;-63
2023/08/31 03:28:09;;;;;;;10.70;5.60;;;;;;;12.77;100.00;99716.35;105514;1259;83643;-63
2023/08/31 03:30:36;;;;;;;8.20;5.60;;;;;;;12.72;100.00;99718.73;105520;1254;72677;-63
2023/08/31 03:33:04;;;;;;;8.70;5.60;;;;;;;12.68;100.00;99722.45;105455;1256;69153;-63
2023/08/31 03:35:32;;;;;;;6.80;5.50;;;;;;;12.66;100.00;99726.96;105537;1256;69144;-63
2023/08/31 03:38:00;;;;;;;7.40;5.70;;;;;;;12.64;100.00;99724.62;105525;1260;75117;-63
2023/08/31 03:40:28;;;;;;;7.90;5.80;;;;;;;12.63;100.00;99729.58;105578;1254;83710;-63
2023/08/31 03:42:55;;;;;;;7.50;5.80;;;;;;;12.62;100.00;99721.95;105433;1257;73558;-63
2023/08/31 03:45:22;;;;;;;7.50;5.70;;;;;;;12.60;100.00;99721.55;105503;1254;69166;-63
2023/08/31 03:47:50;;;;;;;8.00;6.10;;;;;;;12.59;100.00;99717.16;105550;1256;69171;-63
2023/08/31 03:50:17;;;;;;;9.70;5.80;;;;;;;12.59;100.00;99715.42;105479;1254;74639;-63
2023/08/31 03:52:46;;;;;;;6.20;5.10;;;;;;;12.59;100.00;99714.38;105498;1254;82326;-62
2023/08/31 03:55:14;;;;;;;10.00;5.70;;;;;;;12.60;100.00;99719.06;105548;1256;73665;-64
2023/08/31 03:57:41;;;;;;;6.20;5.60;;;;;;;12.57;100.00;99728.70;105529;1254;69185;-63
2023/08/31 04:00:14;;;;;;;5.80;4.80;;;;;;;12.55;100.00;99728.28;105519;1254;69176;-63
2023/08/31 04:02:43;;;;;;;7.30;5.00;;;;;;;12.52;100.00;99726.54;105513;1257;75108;-63
2023/08/31 04:05:15;;;;;;;8.00;5.60;;;;;;;12.49;100.00;99725.44;105563;1256;83483;-64
2023/08/31 04:07:43;;;;;;;6.00;4.70;;;;;;;12.43;100.00;99726.88;105528;1256;73844;-63
2023/08/31 04:10:10;;;;;;;8.50;5.30;;;;;;;12.39;100.00;99725.67;105497;1254;69035;-64
2023/08/31 04:12:37;;;;;;;8.40;5.40;;;;;;;12.35;100.00;99725.35;105474;1257;69113;-63
2023/08/31 04:15:05;;;;;;;7.30;5.00;;;;;;;12.35;100.00;99726.27;105479;1256;75005;-63
2023/08/31 04:17:32;;;;;;;5.20;4.60;;;;;;;12.32;100.00;99725.85;105485;1257;83603;-64
2023/08/31 04:19:59;;;;;;;8.40;5.10;;;;;;;12.36;100.00;99727.95;105555;1256;73653;-64
2023/08/31 04:22:26;;;;;;;7.20;4.80;;;;;;;12.35;100.00;99731.51;105554;1257;69259;-64
2023/08/31 04:24:53;;;;;;;6.20;5.10;;;;;;;12.37;100.00;99729.10;105567;1256;69204;-64
2023/08/31 04:27:20;;;;;;;8.80;5.20;;;;;;;12.41;100.00;99730.61;105639;1256;73778;-63
2023/08/31 04:29:48;;;;;;;6.90;5.40;;;;;;;12.45;100.00;99735.17;105575;1257;82201;-63
2023/08/31 04:32:15;;;;;;;7.60;4.90;;;;;;;12.45;100.00;99739.18;105524;1253;72561;-64
2023/08/31 04:34:41;;;;;;;9.10;5.10;;;;;;;12.45;100.00;99737.25;105498;1257;69823;-63
2023/08/31 04:37:08;;;;;;;7.70;5.60;;;;;;;12.46;100.00;99740.32;105484;1257;69127;-63
2023/08/31 04:39:35;;;;;;;7.60;5.00;;;;;;;12.49;100.00;99742.79;105525;1257;73896;-63
2023/08/31 04:42:02;;;;;;;9.30;5.10;;;;;;;12.51;100.00;99739.36;105494;1256;82409;-64
2023/08/31 04:44:30;;;;;;;7.30;5.00;;;;;;;12.52;100.00;99740.89;105560;1257;73576;-64
2023/08/31 04:46:57;;;;;;;7.00;5.00;;;;;;;12.53;100.00;99739.60;105458;1255;69066;-64
2023/08/31 04:49:23;;;;;;;6.70;5.50;;;;;;;12.54;100.00;99739.92;105485;1257;69148;-64
2023/08/31 04:51:50;;;;;;;7.30;5.60;;;;;;;12.55;100.00;99740.02;105507;1256;73997;-64
2023/08/31 04:54:17;;;;;;;8.20;5.20;;;;;;;12.56;100.00;99739.27;105630;1257;82425;-63
2023/08/31 04:56:44;;;;;;;6.60;5.00;;;;;;;12.58;100.00;99736.34;105542;1254;73781;-63
2023/08/31 04:59:11;;;;;;;7.70;5.20;;;;;;;12.62;100.00;99741.23;105446;1254;69164;-64
2023/08/31 05:01:38;;;;;;;13.00;5.40;;;;;;;12.63;100.00;99739.21;105413;1254;69192;-65
2023/08/31 05:04:06;;;;;;;11.60;5.30;;;;;;;12.66;100.00;99742.05;105510;1256;73735;-64
2023/08/31 05:06:33;;;;;;;9.20;5.60;;;;;;;12.70;100.00;99741.13;105791;1264;83333;-64
2023/08/31 05:09:00;;;;;;;10.90;5.50;;;;;;;12.74;100.00;99748.58;105653;1256;73591;-64
2023/08/31 05:11:27;;;;;;;6.20;5.20;;;;;;;12.77;100.00;99754.59;107204;1254;69147;-64
2023/08/31 05:13:54;;;;;;;7.70;5.60;;;;;;;12.82;100.00;99761.48;105663;1256;69601;-64
2023/08/31 05:16:21;;;;;;;9.40;5.70;;;;;;;12.84;100.00;99762.07;105627;1254;75902;-63
2023/08/31 05:18:49;;;;;;;8.40;5.50;;;;;;;12.88;100.00;99764.13;105553;1256;83355;-65
2023/08/31 05:21:16;;;;;;;8.00;5.50;;;;;;;12.90;100.00;99771.70;105614;1257;72645;-62
2023/08/31 05:23:43;;;;;;;7.90;5.50;;;;;;;12.93;100.00;99767.48;105596;1257;69121;-66
2023/08/31 05:26:10;;;;;;;6.90;5.50;;;;;;;12.97;100.00;99768.88;105738;1256;69234;-64
2023/08/31 05:28:37;;;;;;;5.90;5.00;;;;;;;13.01;100.00;99778.48;105608;1256;73631;-63
2023/08/31 05:31:05;;;;;;;9.00;5.40;;;;;;;13.04;100.00;99783.19;105569;1255;83292;-62
2023/08/31 05:33:33;;;;;;;8.50;5.70;;;;;;;13.07;100.00;99782.85;105611;1251;73439;-63
2023/08/31 05:36:03;;;;;;;6.40;5.00;;;;;;;13.09;100.00;99783.45;105637;1252;69179;-63
2023/08/31 05:38:30;;;;;;;6.80;5.50;;;;;;;13.12;100.00;99786.09;105868;1256;69186;-63
2023/08/31 05:41:09;;;;;;;6.40;4.90;;;;;;;13.16;100.00;99785.13;105630;1257;73901;-63
2023/08/31 05:43:39;;;;;;;9.60;4.80;;;;;;;13.17;100.00;99786.45;105604;1254;82316;-63
2023/08/31 05:46:08;;;;;;;7.90;5.50;;;;;;;13.21;100.00;99792.61;105727;1256;73386;-63
2023/08/31 05:48:36;;;;;;;5.80;5.10;;;;;;;13.24;100.00;99795.20;105674;1252;69137;-63
2023/08/31 05:51:03;;;;;;;7.80;5.00;;;;;;;13.28;100.00;99799.77;105771;1252;69081;-63
2023/08/31 05:53:31;;;;;;;7.80;5.40;;;;;;;13.29;100.00;99799.49;105643;1254;74879;-63
2023/08/31 05:56:03;;;;;;;6.90;4.90;;;;;;;13.31;100.00;99803.44;105606;1256;83749;-63
2023/08/31 05:58:35;;;;;;;6.20;5.20;;;;;;;13.32;100.00;99808.27;105621;1257;73842;-63
2023/08/31 06:01:03;;;;;;;6.10;5.40;;;;;;;13.35;100.00;99814.10;105637;1257;69271;-63
2023/08/31 06:03:31;;;;;;;8.50;4.20;;;;;;;13.38;100.00;99813.90;105632;1256;69529;-60
2023/08/31 06:05:59;;;;;;;4.10;3.00;;;;;;;13.49;100.00;99811.72;105576;1256;74531;-63
2023/08/31 06:08:26;;;;;;;4.40;2.90;;;;;;;13.64;100.00;99811.50;105708;1256;82403;-63
2023/08/31 06:10:53;;;;;;;3.60;2.60;;;;;;;13.81;100.00;99810.70;105679;1257;73396;-63
2023/08/31 06:13:20;;;;;;;5.20;2.90;;;;;;;13.95;100.00;99814.77;105529;1252;69077;-63
2023/08/31 06:15:47;;;;;;;3.60;2.60;;;;;;;14.07;100.00;99813.67;105523;1255;69090;-62
2023/08/31 06:18:14;;;;;;;3.40;2.50;;;;;;;14.19;100.00;99818.89;105519;1257;74806;-60
2023/08/31 06:20:41;;;;;;;2.50;2.20;;;;;;;14.32;100.00;99821.45;105633;1256;83283;-63
2023/08/31 06:23:10;;;;;;;2.80;2.00;;;;;;;14.45;100.00;99824.72;105463;1260;73705;-62
2023/08/31 06:25:37;;;;;;;2.40;2.00;;;;;;;14.57;100.00;99831.70;105621;1254;69173;-62
2023/08/31 06:28:08;;;;;;;2.10;1.90;;;;;;;14.68;100.00;99830.15;105508;1264;69076;-62
2023/08/31 06:30:35;;;;;;;2.30;2.10;;;;;;;14.77;100.00;99833.81;105579;1256;72914;-65
2023/08/31 06:33:02;;;;;;;4.00;2.30;;;;;;;14.87;100.00;99837.23;105520;1256;82407;-65
2023/08/31 06:35:29;;;;;;;3.80;2.10;;;;;;;14.97;100.00;99843.77;105556;1257;72695;-65
2023/08/31 06:37:57;;;;;;;2.60;2.00;;;;;;;15.06;100.00;99841.45;105464;1254;69122;-65
2023/08/31 06:40:24;;;;;;;3.40;2.00;;;;;;;15.18;100.00;99843.66;105699;1259;69119;-64
2023/08/31 06:42:51;;;;;;;4.90;2.20;;;;;;;15.30;100.00;99852.40;105786;1257;74423;-65
2023/08/31 06:45:18;;;;;;;6.10;2.60;;;;;;;15.45;100.00;99860.60;105677;1264;83414;-62
2023/08/31 06:47:45;;;;;;;3.00;2.00;;;;;;;15.61;100.00;99860.72;105712;1256;72614;-63
2023/08/31 06:50:12;;;;;;;4.10;2.10;;;;;;;15.77;100.00;99864.08;105578;1257;69226;-62
2023/08/31 06:52:41;;;;;;;2.70;2.10;;;;;;;15.91;100.00;99863.69;105590;1256;69217;-62
2023/08/31 06:55:10;;;;;;;3.40;2.40;;;;;;;16.02;100.00;99866.27;105777;1254;74835;-63
2023/08/31 06:57:38;;;;;;;5.10;2.00;;;;;;;16.14;100.00;99868.15;105793;1256;82423;-63
2023/08/31 07:00:08;;;;;;;2.90;1.70;;;;;;;16.28;100.00;99868.77;105707;1257;73737;-62
2023/08/31 07:02:36;;;;;;;;;;;;;;;16.37;100.00;99867.23;105737;1256;69217;-63
2023/08/31 07:05:04;;;;;;;3.20;1.70;;;;;;;16.44;100.00;99863.40;105690;1254;69071;-62
2023/08/31 07:07:32;;;;;;;2.90;2.20;;;;;;;16.50;100.00;99859.64;105786;1254;73663;-62
2023/08/31 07:09:59;;;;;;;3.40;2.10;;;;;;;16.58;100.00;99869.84;105744;1256;83170;-61
2023/08/31 07:12:26;;;;;;;4.00;1.90;;;;;;;16.63;100.00;99876.66;105641;1262;73843;-62
2023/08/31 07:14:53;;;;;;;6.90;2.20;;;;;;;16.62;100.00;99874.49;105653;1257;69168;-62
2023/08/31 07:17:20;;;;;;;4.90;1.90;;;;;;;16.58;100.00;99879.74;105632;1256;70006;-63
2023/08/31 07:19:48;;;;;;;2.40;1.60;;;;;;;16.48;100.00;99881.83;105761;1257;74092;-61
2023/08/31 07:22:15;;;;;;;2.60;1.80;;;;;;;16.40;100.00;99882.91;105624;1256;82339;-62
2023/08/31 07:24:42;;;;;;;2.40;1.40;;;;;;;16.37;100.00;99878.71;105801;1257;72612;-62
2023/08/31 07:27:09;;;;;;;2.60;2.00;;;;;;;16.39;100.00;99883.53;105613;1254;69061;-63
2023/08/31 07:29:36;;;;;;;6.60;2.10;;;;;;;16.42;100.00;99889.83;105553;1254;69180;-63
2023/08/31 07:32:03;;;;;;;4.20;1.90;;;;;;;16.44;100.00;99887.23;105537;1257;74724;-62
2023/08/31 07:34:31;;;;;;;4.20;2.10;;;;;;;16.49;100.00;99882.91;105803;1256;83347;-62
2023/08/31 07:36:59;;;;;;;3.30;2.10;;;;;;;16.54;100.00;99884.94;105764;1256;73568;-63
2023/08/31 07:39:26;;;;;;;3.90;2.20;;;;;;;16.57;100.00;99889.65;105634;1258;69150;-64
2023/08/31 07:41:54;;;;;;;3.90;1.90;;;;;;;16.60;100.00;99897.05;105676;1254;69157;-61
2023/08/31 07:44:21;;;;;;;3.50;2.00;;;;;;;16.60;100.00;99907.62;105705;1256;74972;-62
2023/08/31 07:46:48;;;;;;;3.60;1.90;;;;;;;16.54;99.70;99915.80;105627;1257;83429;-62
2023/08/31 07:49:15;;;;;;;3.10;2.00;;;;;;;16.45;99.49;99926.80;105672;1256;74304;-65
2023/08/31 07:51:42;;;;;;;2.50;2.10;;;;;;;16.38;99.21;99930.65;105632;1256;69172;-63
2023/08/31 07:54:09;;;;;;;3.60;2.20;;;;;;;16.34;99.24;99935.14;105629;1256;69173;-62
2023/08/31 07:56:35;;;;;;;3.00;2.10;;;;;;;16.33;99.45;99943.30;105351;1258;290525;-62
2023/08/31 07:59:03;;;;;;;4.20;2.20;;;;;;;16.30;99.41;99948.64;105902;1264;82147;-61
2023/08/31 08:01:30;;;;;;;3.40;2.30;;;;;;;16.21;99.37;99955.77;105718;1254;71191;-62
2023/08/31 08:03:57;;;;;;;3.60;2.20;;;;;;;16.09;98.97;99967.86;105601;1256;69151;-63
2023/08/31 08:06:24;;;;;;;2.40;2.20;;;;;;;15.98;99.14;99966.86;105718;1257;69189;-65
2023/08/31 08:08:51;;;;;;;3.20;2.40;;;;;;;15.89;99.35;99956.67;105616;1257;75014;-68
2023/08/31 08:11:18;;;;;;;4.00;2.30;;;;;;;15.79;99.52;99946.79;105620;1256;82378;-69
2023/08/31 08:13:45;;;;;;;2.70;2.40;;;;;;;15.63;99.48;99966.66;105656;1255;74727;-67
2023/08/31 08:16:12;;;;;;;2.90;2.20;;;;;;;15.30;99.41;99975.97;105816;1252;70542;-65
2023/08/31 08:18:40;;;;;;;7.70;2.50;;;;;;;15.00;99.50;99974.16;105844;1255;69163;-65
2023/08/31 08:21:07;;;;;;;3.90;2.50;;;;;;;14.67;99.77;99980.20;105718;1256;74209;-66
2023/08/31 08:23:34;;;;;;;2.70;2.00;;;;;;;14.49;100.00;99970.70;105675;1257;82972;-65
2023/08/31 08:26:01;;;;;;;4.10;2.40;;;;;;;14.36;100.00;99976.08;105531;1257;72545;-65
2023/08/31 08:28:28;;;;;;;3.10;2.60;;;;;;;14.23;100.00;99989.30;105488;1257;69185;-62
2023/08/31 08:30:55;;;;;;;4.80;2.00;;;;;;;14.13;100.00;99986.92;105443;1260;69119;-62
2023/08/31 08:33:22;;;;;;;3.50;2.00;;;;;;;14.04;100.00;99977.05;105517;1255;74991;-62
2023/08/31 08:35:49;;;;;;;3.30;2.10;;;;;;;13.99;100.00;99964.15;105506;1256;83408;-62
2023/08/31 08:38:16;;;;;;;3.10;1.80;;;;;;;14.00;100.00;99956.36;105449;1254;73496;-61
2023/08/31 08:40:43;;;;;;;4.00;1.80;;;;;;;14.02;100.00;99954.86;105433;1254;69304;-61
2023/08/31 08:43:11;;;;;;;2.50;2.10;;;;;;;14.02;100.00;99984.39;105476;1256;69289;-62
2023/08/31 08:45:41;;;;;;;4.40;2.20;;;;;;;13.98;100.00;100000.77;105517;1256;75106;-61
2023/08/31 08:48:08;;;;;;;3.20;1.90;;;;;;;13.92;100.00;99996.54;105516;1255;82997;-61
2023/08/31 08:50:36;;;;;;;3.70;2.30;;;;;;;13.90;100.00;99999.69;105476;1253;73705;-62
2023/08/31 08:53:05;;;;;;;6.10;2.40;;;;;;;13.91;100.00;99996.46;105513;1256;69124;-62
2023/08/31 08:55:32;;;;;;;5.40;2.70;;;;;;;13.96;100.00;99994.39;105469;1256;69190;-63
2023/08/31 08:58:00;;;;;;;4.40;2.20;;;;;;;14.08;100.00;99995.13;105541;1256;75021;-63
2023/08/31 09:00:27;;;;;;;4.20;2.20;;;;;;;14.27;100.00;100000.33;105503;1257;83388;-63
2023/08/31 09:02:55;;;;;;;2.90;2.50;;;;;;;14.44;100.00;99996.50;105550;1257;73993;-62
2023/08/31 09:05:23;;;;;;;4.70;2.20;;;;;;;14.60;100.00;100002.59;105535;1254;69552;-62
2023/08/31 09:08:04;;;;;;;2.00;1.70;;;;;;;14.77;100.00;100005.45;105512;1258;69112;-62
2023/08/31 09:10:36;;;;;;;3.30;2.00;;;;;;;14.87;100.00;100006.96;105504;1254;73831;-62
2023/08/31 09:13:11;;;;;;;2.50;1.90;;;;;;;14.88;100.00;100011.11;105543;1255;82357;-63
2023/08/31 09:15:48;;;;;;;2.50;1.80;;;;;;;14.85;100.00;100008.12;105513;1256;73612;-63
2023/08/31 09:18:31;;;;;;;2.00;1.50;;;;;;;14.87;100.00;100008.88;105534;1257;69182;-62
2023/08/31 09:21:00;;;;;;;2.20;2.00;;;;;;;14.92;100.00;100007.13;105534;1254;69650;-63
2023/08/31 09:23:28;;;;;;;4.30;2.20;;;;;;;14.98;100.00;100010.36;105517;1254;73854;-62
2023/08/31 09:25:55;;;;;;;3.60;1.70;;;;;;;15.03;100.00;100021.11;105482;1256;83306;-63
2023/08/31 09:28:27;;;;;;;2.60;1.70;;;;;;;15.05;100.00;100022.21;105509;1256;73833;-61
2023/08/31 09:31:08;;;;;;;3.00;1.70;;;;;;;15.07;100.00;100028.77;105513;1257;69201;-62
2023/08/31 09:33:36;;;;;;;;;;;;;;;15.08;100.00;100033.13;105514;1257;69187;-63
2023/08/31 09:36:07;;;;;;;3.40;1.90;;;;;;;15.11;100.00;100035.04;105524;1254;75016;-63
2023/08/31 09:38:42;;;;;;;4.10;1.90;;;;;;;15.18;100.00;100031.77;105464;1257;83390;-63
2023/08/31 09:41:09;;;;;;;1.90;1.70;;;;;;;15.33;100.00;100032.42;105501;1254;73751;-63
2023/08/31 09:43:36;;;;;;;2.00;1.50;;;;;;;15.47;100.00;100038.42;105557;1257;69185;-63
2023/08/31 09:46:04;;;;;;;1.70;1.10;;;;;;;15.55;100.00;100040.02;105521;1256;69288;-63
2023/08/31 09:48:32;;;;;;;1.70;1.30;;;;;;;15.64;100.00;100047.95;105514;1254;74794;-63
2023/08/31 09:51:04;;;;;;;2.10;1.20;;;;;;;15.72;100.00;100049.95;105472;1254;83649;-63
2023/08/31 09:53:31;;;;;;;2.00;1.30;;;;;;;15.79;100.00;100051.92;105491;1256;73736;-63
2023/08/31 09:55:59;;;;;;;1.70;1.10;;;;;;;15.85;100.00;100048.90;105472;1254;69185;-63
2023/08/31 09:58:28;;;;;;;2.30;1.50;;;;;;;15.91;100.00;100043.59;105530;1257;69120;-63
2023/08/31 10:00:56;;;;;;;2.00;1.30;;;;;;;16.02;100.00;100041.65;105514;1254;73840;-63
2023/08/31 10:03:23;;;;;;;2.10;1.10;;;;;;;16.14;100.00;100044.88;105397;1257;83261;-64
2023/08/31 10:05:51;;;;;;;2.00;1.20;;;;;;;16.22;100.00;100046.30;105522;1254;73727;-64
2023/08/31 10:08:18;;;;;;;1.30;1.00;;;;;;;16.27;100.00;100049.33;105487;1254;69082;-64
2023/08/31 10:10:46;;;;;;;1.60;1.00;;;;;;;16.34;100.00;100048.18;105521;1258;69256;-64
2023/08/31 10:13:14;;;;;;;1.90;1.10;;;;;;;16.47;100.00;100052.95;105466;1254;72806;-64
2023/08/31 10:15:43;;;;;;;3.20;1.00;;;;;;;16.64;100.00;100052.16;105566;1257;83429;-63
2023/08/31 10:18:10;;;;;;;1.50;1.30;;;;;;;16.81;100.00;100051.05;105480;1258;73835;-64
2023/08/31 10:20:42;;;;;;;2.90;1.30;;;;;;;16.99;100.00;100051.90;105510;1254;69509;-64
2023/08/31 10:23:09;;;;;;;2.50;1.10;;;;;;;17.26;100.00;100053.17;105509;1252;71197;-64
2023/08/31 10:25:49;;;;;;;4.30;1.40;;;;;;;17.46;100.00;100050.53;105534;1254;73690;-64
2023/08/31 10:28:23;;;;;;;2.90;1.20;;;;;;;17.60;100.00;100048.11;105494;1257;82526;-64
2023/08/31 10:31:10;;;;;;;1.80;1.20;;;;;;;17.77;100.00;100044.61;105486;1257;73846;-64
2023/08/31 10:33:42;;;;;;;1.70;1.30;;;;;;;18.19;99.98;100036.12;105434;1254;69164;-64
2023/08/31 10:36:14;;;;;;;1.70;1.30;;;;;;;18.61;99.60;100028.34;105533;1257;69118;-64
2023/08/31 10:38:45;;;;;;;1.90;1.40;;;;;;;19.03;99.36;100028.95;105551;1256;73894;-64
2023/08/31 10:41:12;;;;;;;5.00;1.40;;;;;;;19.47;98.89;100027.81;105507;1254;83367;-65
2023/08/31 10:43:58;;;;;;;2.60;1.30;;;;;;;19.62;97.13;100026.42;105506;1254;74124;-65
2023/08/31 10:46:30;;;;;;;2.30;1.50;;;;;;;19.54;95.52;100024.75;105563;1254;69181;-68
2023/08/31 10:49:10;;;;;;;5.00;1.50;;;;;;;19.58;95.02;100029.76;105505;1257;69205;-68
2023/08/31 10:51:39;;;;;;;4.10;1.50;;;;;;;19.80;94.33;100028.55;105524;1254;74695;-67
2023/08/31 10:54:09;;;;;;;2.60;1.40;;;;;;;20.25;94.64;100027.52;105630;1257;83595;-66
2023/08/31 10:56:53;;;;;;;4.50;1.80;;;;;;;20.48;93.30;100027.83;105567;1254;72649;-73
2023/08/31 10:59:21;;;;;;;1.40;1.20;;;;;;;20.32;90.73;100028.84;105532;1255;69100;-74
2023/08/31 11:01:58;;;;;;;2.30;1.40;;;;;;;20.47;90.54;100025.65;105532;1254;69105;-74
2023/08/31 11:04:27;;;;;;;2.50;1.60;;;;;;;20.78;89.85;100028.95;105511;1253;74768;-74
2023/08/31 11:07:14;;;;;;;4.70;1.70;;;;;;;20.76;88.75;100027.66;105589;1254;83501;-73
2023/08/31 11:09:42;;;;;;;1.90;1.40;;;;;;;20.71;86.94;100035.91;105513;1253;73614;-72
2023/08/31 11:12:09;;;;;;;4.70;1.80;;;;;;;20.72;86.40;100027.98;105514;1255;69164;-70
2023/08/31 11:14:37;;;;;;;3.80;1.80;;;;;;;20.65;85.94;100027.95;105537;1257;69179;-72
2023/08/31 11:17:05;;;;;;;2.60;1.80;;;;;;;20.73;85.64;100030.94;105556;1254;74723;-73
2023/08/31 11:19:35;;;;;;;2.10;1.60;;;;;;;20.92;84.89;100031.05;105519;1263;83174;-73
2023/08/31 11:22:03;;;;;;;2.70;1.50;;;;;;;21.02;84.23;100034.27;105561;1257;73437;-72
2023/08/31 11:24:32;;;;;;;3.80;1.70;;;;;;;21.14;83.75;100032.58;105510;1253;69080;-73